Time;durP1;ratioP1;P1;durP2;ratioP2;P2;SDS_P1;SDS_P2;PMS_P1;PMS_P2;Temp;Humidity;BMP_temperature;BMP_pressure;BME280_temperature;BME280_humidity;BME280_pressure;Samples;Min_cycle;Max_cycle;Signal;HPM_P1;HPM_P2
2022/08/19 00:00:51;;;;;;;3.17;0.93;;;;;;;;;;5130549;27;20047;-72
2022/08/19 00:03:20;;;;;;;2.85;1.08;;;;;;;;;;5130497;27;20050;-72
2022/08/19 00:05:50;;;;;;;0.98;0.70;;;;;;;;;;5112879;27;20054;-72
2022/08/19 00:08:20;;;;;;;1.38;0.63;;;;;;;;;;5130629;27;21198;-72
2022/08/19 00:10:50;;;;;;;2.22;0.90;;;;;;;;;;5130204;27;20413;-72
2022/08/19 00:13:19;;;;;;;1.90;0.75;;;;;;;;;;5130454;27;20050;-72
2022/08/19 00:15:49;;;;;;;2.00;0.82;;;;;;;;;;5129174;27;20374;-72
2022/08/19 00:18:19;;;;;;;1.20;0.68;;;;;;;;;;5130156;27;20051;-71
2022/08/19 00:20:49;;;;;;;1.70;1.05;;;;;;;;;;5130168;27;20545;-71
2022/08/19 00:23:19;;;;;;;1.83;1.00;;;;;;;;;;5129709;27;20043;-72
2022/08/19 00:25:49;;;;;;;1.40;1.08;;;;;;;;;;5128853;27;20047;-73
2022/08/19 00:28:20;;;;;;;3.58;0.98;;;;;;;;;;5130588;27;20051;-71
2022/08/19 00:30:51;;;;;;;5.20;1.02;;;;;;;;;;5129377;27;20047;-72
2022/08/19 00:33:21;;;;;;;2.78;1.02;;;;;;;;;;5129250;27;20755;-72
2022/08/19 00:35:52;;;;;;;1.42;0.93;;;;;;;;;;5129953;27;20047;-72
2022/08/19 00:38:24;;;;;;;1.77;1.10;;;;;;;;;;5129802;27;20473;-71
2022/08/19 00:41:07;;;;;;;2.40;1.35;;;;;;;;;;5130475;27;20521;-73
2022/08/19 00:43:38;;;;;;;3.35;1.50;;;;;;;;;;5129792;27;20039;-73
2022/08/19 00:46:08;;;;;;;7.55;1.83;;;;;;;;;;5130011;27;20054;-72
2022/08/19 00:48:38;;;;;;;;;;;;;;;;;;5112328;27;20055;-72
2022/08/19 00:51:08;;;;;;;7.70;2.10;;;;;;;;;;5129249;27;19923;-71
2022/08/19 00:53:39;;;;;;;5.43;3.13;;;;;;;;;;5129845;27;20039;-70
2022/08/19 00:56:09;;;;;;;3.10;1.85;;;;;;;;;;5129687;27;20363;-71
2022/08/19 00:58:40;;;;;;;2.80;1.65;;;;;;;;;;5129485;27;20043;-68
2022/08/19 01:01:10;;;;;;;2.53;1.70;;;;;;;;;;5129352;27;20070;-72
2022/08/19 01:03:42;;;;;;;4.10;1.98;;;;;;;;;;5128964;27;20043;-72
2022/08/19 01:06:28;;;;;;;7.13;1.77;;;;;;;;;;5129733;27;20054;-72
2022/08/19 01:09:00;;;;;;;3.92;1.42;;;;;;;;;;5129446;27;20050;-71
2022/08/19 01:11:33;;;;;;;2.03;1.20;;;;;;;;;;5128021;27;20058;-71
2022/08/19 01:14:04;;;;;;;4.57;1.30;;;;;;;;;;5127568;27;20053;-71
2022/08/19 01:16:35;;;;;;;2.63;1.50;;;;;;;;;;5127452;27;20051;-70
2022/08/19 01:19:16;;;;;;;3.70;1.85;;;;;;;;;;5129181;27;20798;-73
2022/08/19 01:22:01;;;;;;;4.65;1.40;;;;;;;;;;5129279;27;20038;-72
2022/08/19 01:24:42;;;;;;;2.65;1.50;;;;;;;;;;5129310;27;20043;-72
2022/08/19 01:27:18;;;;;;;2.80;1.50;;;;;;;;;;5128983;27;20035;-71
2022/08/19 01:29:50;;;;;;;5.78;1.63;;;;;;;;;;5129058;27;20051;-70
2022/08/19 01:32:23;;;;;;;4.05;1.80;;;;;;;;;;5129026;27;20043;-72
2022/08/19 01:35:04;;;;;;;3.60;1.83;;;;;;;;;;5111986;27;20054;-70
2022/08/19 01:37:49;;;;;;;4.15;2.22;;;;;;;;;;5127757;27;20047;-70
2022/08/19 01:40:22;;;;;;;3.03;1.48;;;;;;;;;;5127153;27;20054;-71
2022/08/19 01:42:53;;;;;;;4.47;2.22;;;;;;;;;;5127944;27;20051;-71
2022/08/19 01:45:28;;;;;;;16.58;7.30;;;;;;;;;;5128793;27;20054;-71
2022/08/19 01:48:00;;;;;;;16.58;7.47;;;;;;;;;;5128813;27;20031;-70
2022/08/19 01:50:32;;;;;;;8.40;4.57;;;;;;;;;;5110515;27;20509;-69
2022/08/19 01:53:09;;;;;;;6.80;2.83;;;;;;;;;;5109509;27;20047;-70
2022/08/19 01:55:43;;;;;;;9.23;3.20;;;;;;;;;;5127752;27;20043;-71
2022/08/19 01:58:22;;;;;;;5.32;2.70;;;;;;;;;;5128368;27;20054;-70
2022/08/19 02:00:53;;;;;;;8.20;5.47;;;;;;;;;;5128794;27;20042;-71
2022/08/19 02:03:23;;;;;;;5.25;4.15;;;;;;;;;;5110575;27;20051;-71
2022/08/19 02:05:56;;;;;;;7.10;3.67;;;;;;;;;;5128211;27;20089;-70
2022/08/19 02:08:30;;;;;;;8.73;3.75;;;;;;;;;;5128180;27;20039;-71
2022/08/19 02:11:00;;;;;;;13.75;5.70;;;;;;;;;;5128086;27;20046;-69
2022/08/19 02:13:30;;;;;;;;;;;;;;;;;;5128663;27;20050;-71
2022/08/19 02:16:00;;;;;;;6.28;3.55;;;;;;;;;;5128592;27;19919;-70
2022/08/19 02:18:34;;;;;;;8.40;4.10;;;;;;;;;;5127485;27;20043;-71
2022/08/19 02:21:04;;;;;;;7.32;3.17;;;;;;;;;;5126264;27;20055;-70
2022/08/19 02:23:34;;;;;;;8.85;3.67;;;;;;;;;;5128078;27;20039;-70
2022/08/19 02:26:03;;;;;;;6.18;4.07;;;;;;;;;;5127764;27;20413;-70
2022/08/19 02:28:33;;;;;;;6.72;3.13;;;;;;;;;;5128254;27;20051;-72
2022/08/19 02:31:08;;;;;;;6.82;3.47;;;;;;;;;;5127069;27;20043;-70
2022/08/19 02:33:39;;;;;;;6.35;4.10;;;;;;;;;;5128420;27;20400;-73
2022/08/19 02:36:09;;;;;;;6.60;2.97;;;;;;;;;;5127505;27;20058;-72
2022/08/19 02:38:40;;;;;;;6.75;4.60;;;;;;;;;;5127669;27;20047;-72
2022/08/19 02:41:22;;;;;;;6.68;3.85;;;;;;;;;;5127919;27;20046;-72
2022/08/19 02:43:57;;;;;;;7.57;4.15;;;;;;;;;;5127509;27;20043;-71
2022/08/19 02:46:49;;;;;;;8.32;3.78;;;;;;;;;;5128159;27;20062;-71
2022/08/19 02:49:20;;;;;;;7.35;4.35;;;;;;;;;;5127487;27;20054;-71
2022/08/19 02:51:50;;;;;;;7.50;4.20;;;;;;;;;;5127853;27;20051;-71
2022/08/19 02:54:19;;;;;;;;;;;;;;;;;;5128352;27;20039;-74
2022/08/19 02:56:50;;;;;;;6.25;4.53;;;;;;;;;;5127160;27;19927;-72
2022/08/19 02:59:19;;;;;;;6.85;3.72;;;;;;;;;;5127445;27;20050;-72
2022/08/19 03:01:50;;;;;;;4.93;3.85;;;;;;;;;;5127275;27;20044;-71
2022/08/19 03:04:20;;;;;;;5.50;4.10;;;;;;;;;;5127382;28;20062;-71
2022/08/19 03:06:51;;;;;;;5.95;3.63;;;;;;;;;;5127445;28;20051;-71
2022/08/19 03:09:20;;;;;;;;;;;;;;;;;;5128098;28;20067;-72
2022/08/19 03:11:50;;;;;;;5.65;3.03;;;;;;;;;;5127535;28;19923;-71
2022/08/19 03:14:20;;;;;;;6.95;3.55;;;;;;;;;;5127436;28;20054;-71
2022/08/19 03:16:52;;;;;;;6.88;3.17;;;;;;;;;;5126936;28;20695;-72
2022/08/19 03:19:22;;;;;;;10.90;3.80;;;;;;;;;;5127044;28;20054;-71
2022/08/19 03:21:52;;;;;;;5.30;3.10;;;;;;;;;;5127443;28;20113;-71
2022/08/19 03:24:22;;;;;;;7.50;3.03;;;;;;;;;;5127611;28;20046;-71
2022/08/19 03:26:58;;;;;;;4.65;2.72;;;;;;;;;;5127140;28;20051;-71
2022/08/19 03:29:31;;;;;;;8.38;3.17;;;;;;;;;;5127233;28;20511;-71
2022/08/19 03:32:12;;;;;;;6.80;2.83;;;;;;;;;;5127234;28;20035;-72
2022/08/19 03:35:00;;;;;;;3.45;2.03;;;;;;;;;;5127451;28;20043;-72
2022/08/19 03:37:30;;;;;;;6.57;2.47;;;;;;;;;;5127016;28;20054;-71
2022/08/19 03:40:03;;;;;;;5.85;2.75;;;;;;;;;;5127223;28;20599;-72
2022/08/19 03:42:33;;;;;;;5.45;3.22;;;;;;;;;;5126885;28;20044;-71
2022/08/19 03:45:17;;;;;;;4.60;2.58;;;;;;;;;;5108464;28;20058;-72
2022/08/19 03:47:47;;;;;;;6.57;2.33;;;;;;;;;;5127297;28;20474;-71
2022/08/19 03:50:18;;;;;;;3.17;2.08;;;;;;;;;;5126658;28;20410;-71
2022/08/19 03:52:51;;;;;;;3.38;1.65;;;;;;;;;;5126737;28;20058;-71
2022/08/19 03:55:22;;;;;;;4.43;2.13;;;;;;;;;;5127184;28;20063;-71
2022/08/19 03:57:52;;;;;;;3.22;1.70;;;;;;;;;;5109309;28;20059;-72
2022/08/19 04:00:27;;;;;;;4.07;2.50;;;;;;;;;;5127044;28;20421;-70
2022/08/19 04:02:57;;;;;;;3.78;1.65;;;;;;;;;;5126914;28;20054;-71
2022/08/19 04:05:29;;;;;;;2.08;1.73;;;;;;;;;;5126845;28;20051;-72
2022/08/19 04:08:00;;;;;;;4.47;2.28;;;;;;;;;;5128333;27;20047;-71
2022/08/19 04:10:30;;;;;;;4.93;1.48;;;;;;;;;;5130485;27;20039;-71
2022/08/19 04:12:59;;;;;;;2.40;1.80;;;;;;;;;;5130853;27;20042;-71
2022/08/19 04:15:33;;;;;;;3.70;1.67;;;;;;;;;;5130950;27;20050;-72
2022/08/19 04:18:05;;;;;;;2.95;1.65;;;;;;;;;;5130740;27;20043;-71
2022/08/19 04:20:41;;;;;;;2.88;1.58;;;;;;;;;;5129337;27;20047;-71
2022/08/19 04:23:12;;;;;;;4.72;1.65;;;;;;;;;;5112073;27;20050;-72
2022/08/19 04:25:44;;;;;;;2.13;1.63;;;;;;;;;;5111080;27;20103;-71
2022/08/19 04:28:14;;;;;;;4.97;1.67;;;;;;;;;;5130485;27;20058;-71
2022/08/19 04:30:47;;;;;;;3.72;1.42;;;;;;;;;;5130664;27;20051;-71
2022/08/19 04:33:20;;;;;;;6.07;1.50;;;;;;;;;;5130004;27;20489;-71
2022/08/19 04:35:58;;;;;;;2.97;1.85;;;;;;;;;;5129939;27;20039;-71
2022/08/19 04:38:28;;;;;;;1.77;1.27;;;;;;;;;;5130530;27;20050;-70
2022/08/19 04:43:48;;;;;;;2.15;1.40;;;;;;;;;;5130271;27;20070;-71
2022/08/19 04:46:19;;;;;;;2.13;1.42;;;;;;;;;;5129653;27;20058;-71
2022/08/19 04:49:08;;;;;;;3.47;1.42;;;;;;;;;;5129790;27;20097;-70
2022/08/19 04:51:43;;;;;;;3.13;1.50;;;;;;;;;;5129682;27;20055;-71
2022/08/19 04:54:15;;;;;;;4.20;1.48;;;;;;;;;;5130031;27;20054;-72
2022/08/19 04:57:09;;;;;;;3.08;1.80;;;;;;;;;;5130322;27;20051;-71
2022/08/19 04:59:39;;;;;;;1.73;1.17;;;;;;;;;;5129910;27;20059;-71
2022/08/19 05:02:10;;;;;;;3.13;1.88;;;;;;;;;;5129734;27;20422;-70
2022/08/19 05:04:39;;;;;;;3.17;1.92;;;;;;;;;;5129014;27;20050;-71
2022/08/19 05:07:09;;;;;;;2.90;1.60;;;;;;;;;;5129085;27;20421;-72
2022/08/19 05:09:39;;;;;;;1.83;1.30;;;;;;;;;;5129586;27;20051;-71
2022/08/19 05:12:28;;;;;;;3.53;1.50;;;;;;;;;;5129568;27;20039;-72
2022/08/19 05:14:59;;;;;;;3.30;1.40;;;;;;;;;;5129628;27;20047;-71
2022/08/19 05:17:28;;;;;;;3.72;1.60;;;;;;;;;;5129225;27;20039;-71
2022/08/19 05:22:56;;;;;;;3.45;1.00;;;;;;;;;;5129632;27;20389;-71
2022/08/19 05:25:25;;;;;;;2.42;1.63;;;;;;;;;;5128863;27;20043;-72
2022/08/19 05:27:55;;;;;;;1.10;1.00;;;;;;;;;;5129300;27;20077;-70
2022/08/19 05:30:25;;;;;;;4.32;1.83;;;;;;;;;;5109934;27;20047;-71
2022/08/19 05:33:14;;;;;;;2.72;1.50;;;;;;;;;;5129273;27;20051;-71
2022/08/19 05:35:45;;;;;;;6.35;1.30;;;;;;;;;;5129152;27;20051;-72
2022/08/19 05:38:17;;;;;;;1.33;1.15;;;;;;;;;;5129345;27;20366;-71
2022/08/19 05:40:49;;;;;;;1.88;1.25;;;;;;;;;;5129223;27;20065;-71
2022/08/19 05:43:19;;;;;;;2.67;1.58;;;;;;;;;;5110051;27;20055;-71
2022/08/19 05:45:50;;;;;;;1.40;1.00;;;;;;;;;;5128797;27;20070;-71
2022/08/19 05:48:20;;;;;;;2.55;1.25;;;;;;;;;;5128494;27;20595;-71
2022/08/19 05:50:50;;;;;;;0.98;0.90;;;;;;;;;;5128871;27;20046;-70
2022/08/19 05:53:20;;;;;;;2.28;1.40;;;;;;;;;;5128724;27;20873;-72
2022/08/19 05:55:50;;;;;;;1.48;1.10;;;;;;;;;;5128736;27;20054;-71
2022/08/19 05:58:19;;;;;;;2.35;1.42;;;;;;;;;;5109276;27;20058;-71
2022/08/19 06:00:55;;;;;;;1.58;0.93;;;;;;;;;;5128696;27;20064;-72
2022/08/19 06:03:25;;;;;;;1.20;1.10;;;;;;;;;;5128446;27;20043;-71
2022/08/19 06:05:55;;;;;;;1.98;1.10;;;;;;;;;;5128590;27;20599;-70
2022/08/19 06:08:26;;;;;;;1.70;0.98;;;;;;;;;;5128078;27;20116;-71
2022/08/19 06:11:43;;;;;;;5.13;1.35;;;;;;;;;;5128716;27;20058;-70
2022/08/19 06:14:17;;;;;;;4.35;1.30;;;;;;;;;;5079936;27;20067;-71
2022/08/19 06:16:55;;;;;;;1.73;1.23;;;;;;;;;;5128255;27;20058;-71
2022/08/19 06:19:25;;;;;;;;;;;;;;;;;;5128523;27;20043;-71
2022/08/19 06:21:58;;;;;;;3.08;1.50;;;;;;;;;;5127908;27;20278;-71
2022/08/19 06:24:31;;;;;;;3.17;1.20;;;;;;;;;;5128039;27;20055;-71
2022/08/19 06:27:03;;;;;;;2.08;1.17;;;;;;;;;;5128029;27;20047;-71
2022/08/19 06:29:33;;;;;;;1.85;1.05;;;;;;;;;;5109973;27;20043;-71
2022/08/19 06:32:04;;;;;;;1.90;1.20;;;;;;;;;;5127364;27;20044;-71
2022/08/19 06:34:35;;;;;;;1.80;1.40;;;;;;;;;;5127588;27;20035;-71
2022/08/19 06:37:05;;;;;;;2.35;1.13;;;;;;;;;;5127503;27;20054;-71
2022/08/19 06:39:38;;;;;;;1.73;1.05;;;;;;;;;;5127704;27;20120;-71
2022/08/19 06:42:11;;;;;;;1.38;0.95;;;;;;;;;;5128204;27;20494;-71
2022/08/19 06:44:43;;;;;;;3.22;1.38;;;;;;;;;;5127830;27;20406;-71
2022/08/19 06:47:20;;;;;;;1.25;0.90;;;;;;;;;;5127597;27;20047;-71
2022/08/19 06:50:01;;;;;;;1.20;0.85;;;;;;;;;;5127546;27;20611;-71
2022/08/19 06:52:35;;;;;;;1.98;0.90;;;;;;;;;;5108580;27;20050;-71
2022/08/19 06:55:07;;;;;;;1.15;1.00;;;;;;;;;;5127392;27;20039;-71
2022/08/19 06:57:37;;;;;;;1.20;1.00;;;;;;;;;;5127704;27;20808;-71
2022/08/19 07:00:11;;;;;;;2.47;1.27;;;;;;;;;;5127658;27;20043;-70
2022/08/19 07:02:45;;;;;;;2.38;1.38;;;;;;;;;;5127549;27;20179;-70
2022/08/19 07:05:23;;;;;;;1.45;1.00;;;;;;;;;;5127527;28;20053;-71
2022/08/19 07:07:53;;;;;;;1.33;1.10;;;;;;;;;;5107992;28;20051;-71
2022/08/19 07:10:25;;;;;;;2.45;1.20;;;;;;;;;;5109293;28;20058;-71
2022/08/19 07:12:58;;;;;;;1.60;1.15;;;;;;;;;;5127939;28;20050;-71
2022/08/19 07:15:29;;;;;;;1.00;0.88;;;;;;;;;;5127496;28;20055;-70
2022/08/19 07:17:58;;;;;;;;;;;;;;;;;;5127528;28;20622;-71
2022/08/19 07:20:28;;;;;;;0.63;0.60;;;;;;;;;;5127664;28;20361;-71
2022/08/19 07:22:58;;;;;;;1.25;0.90;;;;;;;;;;5126917;28;20047;-70
2022/08/19 07:25:28;;;;;;;;;;;;;;;;;;5128010;28;20047;-70
2022/08/19 07:28:01;;;;;;;2.03;0.65;;;;;;;;;;5127389;28;19927;-71
2022/08/19 07:30:31;;;;;;;1.40;0.70;;;;;;;;;;5127199;28;20083;-70
2022/08/19 07:33:02;;;;;;;1.00;0.88;;;;;;;;;;5108232;28;20055;-70
2022/08/19 07:35:33;;;;;;;1.23;0.90;;;;;;;;;;5127537;28;20055;-71
2022/08/19 07:38:03;;;;;;;1.75;1.25;;;;;;;;;;5127564;28;20404;-70
2022/08/19 07:40:33;;;;;;;1.65;0.98;;;;;;;;;;5127545;28;20051;-71
2022/08/19 07:43:03;;;;;;;1.23;1.05;;;;;;;;;;5130465;27;20047;-71
2022/08/19 07:45:32;;;;;;;0.93;0.90;;;;;;;;;;5130854;27;20418;-70
2022/08/19 07:48:03;;;;;;;1.92;1.10;;;;;;;;;;5131201;27;20097;-71
2022/08/19 07:50:33;;;;;;;1.45;1.05;;;;;;;;;;5131043;27;20409;-70
2022/08/19 07:53:03;;;;;;;1.10;0.95;;;;;;;;;;5131147;27;20047;-71
2022/08/19 07:55:33;;;;;;;2.05;1.48;;;;;;;;;;5130400;27;20047;-70
2022/08/19 07:58:21;;;;;;;2.08;1.27;;;;;;;;;;5130702;27;20047;-71
2022/08/19 08:00:52;;;;;;;1.77;1.10;;;;;;;;;;5111665;27;20387;-71
2022/08/19 08:09:10;;;;;;;1.58;1.13;;;;;;;;;;5130891;27;20079;-70
2022/08/19 08:09:11;;;;;;;2.13;0.80;;;;;;;;;;5130414;27;20043;-71
2022/08/19 08:11:56;;;;;;;2.67;0.88;;;;;;;;;;5130926;27;20047;-70
2022/08/19 08:14:41;;;;;;;2.05;1.10;;;;;;;;;;5130860;27;20529;-75
2022/08/19 08:17:13;;;;;;;1.42;1.13;;;;;;;;;;5130557;27;20043;-71
2022/08/19 08:20:07;;;;;;;3.83;1.75;;;;;;;;;;5130701;27;20043;-70
2022/08/19 08:25:26;;;;;;;1.77;1.08;;;;;;;;;;5130172;27;20512;-72
2022/08/19 08:28:00;;;;;;;6.03;1.73;;;;;;;;;;5129949;27;20578;-72
2022/08/19 08:30:33;;;;;;;2.25;1.15;;;;;;;;;;5130161;27;20070;-71
2022/08/19 08:33:04;;;;;;;4.53;1.33;;;;;;;;;;5130507;27;20050;-71
2022/08/19 08:35:34;;;;;;;3.10;1.42;;;;;;;;;;5129610;27;20047;-69
2022/08/19 08:38:04;;;;;;;1.63;1.23;;;;;;;;;;5112280;27;20047;-71
2022/08/19 08:41:03;;;;;;;2.25;1.17;;;;;;;;;;5129927;27;20053;-72
2022/08/19 08:43:41;;;;;;;1.02;0.93;;;;;;;;;;5129560;27;20046;-71
2022/08/19 08:46:26;;;;;;;1.42;1.17;;;;;;;;;;5129991;27;20073;-70
2022/08/19 08:49:24;;;;;;;1.38;1.00;;;;;;;;;;5129769;27;20470;-70
2022/08/19 08:52:13;;;;;;;1.13;1.00;;;;;;;;;;5129525;27;20520;-70
2022/08/19 08:54:44;;;;;;;;;;;;;;;;;;5129269;27;20050;-71
2022/08/19 08:57:37;;;;;;;1.27;0.90;;;;;;;;;;5130054;27;20431;-72
2022/08/19 09:00:18;;;;;;;3.58;1.83;;;;;;;;;;5130033;27;20051;-71
2022/08/19 09:02:48;;;;;;;1.65;1.00;;;;;;;;;;5110607;27;20135;-70
2022/08/19 09:05:21;;;;;;;2.67;1.60;;;;;;;;;;5128735;27;20089;-74
2022/08/19 09:08:00;;;;;;;3.22;1.30;;;;;;;;;;5129535;27;20043;-70
2022/08/19 09:10:39;;;;;;;1.88;1.20;;;;;;;;;;5129595;27;20054;-70
2022/08/19 09:13:18;;;;;;;1.73;1.13;;;;;;;;;;5129510;27;20432;-71
2022/08/19 09:16:01;;;;;;;2.55;1.60;;;;;;;;;;5129714;27;20432;-71
2022/08/19 09:18:53;;;;;;;5.85;1.35;;;;;;;;;;5128828;27;20490;-70
2022/08/19 09:21:25;;;;;;;1.70;0.98;;;;;;;;;;5128625;27;20043;-70
2022/08/19 09:24:04;;;;;;;3.63;1.20;;;;;;;;;;5110123;27;20062;-70
2022/08/19 09:26:34;;;;;;;2.00;1.23;;;;;;;;;;5128955;27;20062;-70
2022/08/19 09:29:20;;;;;;;1.40;1.00;;;;;;;;;;5110193;27;20070;-70
2022/08/19 09:31:50;;;;;;;3.13;1.90;;;;;;;;;;5128777;27;20050;-72
2022/08/19 09:34:20;;;;;;;1.75;1.17;;;;;;;;;;5129153;27;20513;-70
2022/08/19 09:36:54;;;;;;;2.75;1.38;;;;;;;;;;5128550;27;20050;-70
2022/08/19 09:39:24;;;;;;;3.05;1.45;;;;;;;;;;5128685;27;20046;-71
2022/08/19 09:42:05;;;;;;;3.75;1.35;;;;;;;;;;5129032;27;20054;-71
2022/08/19 09:44:48;;;;;;;3.80;1.10;;;;;;;;;;5113134;27;20039;-70
2022/08/19 09:47:17;;;;;;;3.47;1.33;;;;;;;;;;5109785;27;20497;-71
2022/08/19 09:49:50;;;;;;;4.85;1.50;;;;;;;;;;5128333;27;20047;-74
2022/08/19 09:52:20;;;;;;;2.35;1.30;;;;;;;;;;5109939;27;20081;-70
2022/08/19 09:54:53;;;;;;;1.38;1.05;;;;;;;;;;5109630;27;20051;-70
2022/08/19 09:57:23;;;;;;;5.35;1.42;;;;;;;;;;5128787;27;20066;-70
2022/08/19 09:59:53;;;;;;;1.92;1.33;;;;;;;;;;5128502;27;20062;-72
2022/08/19 10:02:24;;;;;;;1.27;0.93;;;;;;;;;;5128165;27;20461;-71
2022/08/19 10:07:54;;;;;;;2.47;1.13;;;;;;;;;;5128313;27;20042;-71
2022/08/19 10:10:24;;;;;;;;;;;;;;;;;;5128860;27;20047;-74
2022/08/19 10:12:55;;;;;;;2.72;1.05;;;;;;;;;;5128087;27;20336;-70
2022/08/19 10:15:26;;;;;;;5.20;1.70;;;;;;;;;;5108661;27;20103;-70
2022/08/19 10:17:59;;;;;;;2.05;1.10;;;;;;;;;;5127918;27;20051;-72
2022/08/19 10:20:29;;;;;;;2.03;1.25;;;;;;;;;;5127891;27;20054;-70
2022/08/19 10:22:59;;;;;;;2.10;1.52;;;;;;;;;;5128058;27;20679;-70
2022/08/19 10:25:29;;;;;;;2.63;1.65;;;;;;;;;;5110318;27;20120;-72
2022/08/19 10:27:59;;;;;;;3.53;1.55;;;;;;;;;;5127249;27;20058;-71
2022/08/19 10:30:28;;;;;;;3.97;1.65;;;;;;;;;;5127699;27;20054;-70
2022/08/19 10:33:00;;;;;;;3.10;1.67;;;;;;;;;;5128412;27;20406;-70
2022/08/19 10:35:38;;;;;;;3.45;2.00;;;;;;;;;;5126939;27;20066;-70
2022/08/19 10:38:24;;;;;;;4.00;1.63;;;;;;;;;;5127636;27;20036;-70
2022/08/19 10:41:28;;;;;;;3.65;1.63;;;;;;;;;;5126445;27;20046;-70
2022/08/19 10:44:02;;;;;;;6.13;1.58;;;;;;;;;;5126240;27;20050;-71
2022/08/19 10:46:36;;;;;;;4.57;1.80;;;;;;;;;;5127883;27;20051;-70
2022/08/19 10:49:06;;;;;;;4.32;1.67;;;;;;;;;;5127394;27;20047;-72
2022/08/19 10:57:24;;;;;;;7.53;2.50;;;;;;;;;;5127100;27;20062;-70
2022/08/19 11:00:14;;;;;;;3.83;2.33;;;;;;;;;;5127180;27;20039;-73
2022/08/19 11:02:44;;;;;;;2.92;1.80;;;;;;;;;;5126690;27;20058;-71
2022/08/19 11:05:14;;;;;;;6.55;2.33;;;;;;;;;;5127315;28;20054;-72
2022/08/19 11:07:45;;;;;;;3.55;2.10;;;;;;;;;;5127653;28;20039;-71
2022/08/19 11:10:18;;;;;;;7.38;3.13;;;;;;;;;;5108145;28;20059;-72
2022/08/19 11:12:54;;;;;;;6.57;2.80;;;;;;;;;;5127549;28;20051;-78
2022/08/19 11:15:24;;;;;;;5.63;2.30;;;;;;;;;;5127007;28;20047;-71
2022/08/19 11:17:54;;;;;;;13.18;3.00;;;;;;;;;;5112199;27;20039;-70
2022/08/19 11:20:24;;;;;;;4.45;2.22;;;;;;;;;;5131149;27;20039;-71
2022/08/19 11:22:54;;;;;;;6.00;3.03;;;;;;;;;;5131303;27;20043;-73
2022/08/19 11:25:24;;;;;;;4.15;2.47;;;;;;;;;;5131620;27;20054;-73
2022/08/19 11:27:55;;;;;;;9.43;2.88;;;;;;;;;;5131384;27;20054;-76
2022/08/19 11:30:25;;;;;;;5.05;2.53;;;;;;;;;;5111916;27;20493;-73
2022/08/19 11:32:54;;;;;;;;;;;;;;;;;;5130372;27;20039;-78
2022/08/19 11:35:24;;;;;;;8.43;3.55;;;;;;;;;;5131452;27;19919;-73
2022/08/19 11:37:53;;;;;;;;;;;;;;;;;;5132020;27;20058;-73
2022/08/19 11:40:23;;;;;;;5.35;2.90;;;;;;;;;;5131357;27;19923;-73
2022/08/19 11:42:55;;;;;;;6.32;2.58;;;;;;;;;;5130986;27;20047;-73
2022/08/19 11:45:28;;;;;;;7.57;3.45;;;;;;;;;;5131189;27;20061;-73
2022/08/19 11:47:59;;;;;;;7.55;2.13;;;;;;;;;;5131577;27;20035;-73
2022/08/19 11:50:29;;;;;;;5.38;2.22;;;;;;;;;;5111513;27;20063;-73
2022/08/19 11:53:00;;;;;;;3.35;1.65;;;;;;;;;;5129433;27;20054;-73
2022/08/19 11:55:30;;;;;;;2.40;1.13;;;;;;;;;;5111545;27;20417;-74
2022/08/19 11:58:01;;;;;;;3.20;1.90;;;;;;;;;;5131304;27;20043;-73
2022/08/19 12:00:30;;;;;;;4.15;2.20;;;;;;;;;;5130963;27;20043;-74
2022/08/19 12:03:02;;;;;;;3.53;1.70;;;;;;;;;;5131040;27;20387;-73
2022/08/19 12:05:32;;;;;;;3.03;1.20;;;;;;;;;;5130744;27;20066;-73
2022/08/19 12:08:03;;;;;;;2.15;1.05;;;;;;;;;;5130121;27;20047;-74
2022/08/19 12:10:34;;;;;;;6.72;1.20;;;;;;;;;;5130573;27;20046;-73
2022/08/19 12:13:04;;;;;;;5.30;1.33;;;;;;;;;;5130779;27;20055;-73
2022/08/19 12:15:40;;;;;;;3.30;1.83;;;;;;;;;;5130784;27;20043;-73
2022/08/19 12:18:10;;;;;;;8.32;2.50;;;;;;;;;;5130809;27;20501;-73
2022/08/19 12:20:42;;;;;;;7.13;1.55;;;;;;;;;;5129871;27;20047;-73
2022/08/19 12:23:12;;;;;;;3.75;1.23;;;;;;;;;;5130471;27;20398;-73
2022/08/19 12:25:49;;;;;;;7.90;4.28;;;;;;;;;;5130769;27;20500;-73
2022/08/19 12:28:22;;;;;;;2.78;1.20;;;;;;;;;;5129262;27;20059;-73
2022/08/19 12:30:52;;;;;;;4.40;1.30;;;;;;;;;;5129969;27;20050;-74
2022/08/19 12:33:25;;;;;;;7.55;1.63;;;;;;;;;;5130157;27;20055;-74
2022/08/19 12:36:00;;;;;;;4.28;1.02;;;;;;;;;;5130074;27;20420;-73
2022/08/19 12:38:31;;;;;;;2.92;1.15;;;;;;;;;;5130269;27;20438;-74
2022/08/19 12:41:05;;;;;;;7.20;1.90;;;;;;;;;;5130046;27;20043;-74
2022/08/19 12:43:35;;;;;;;2.30;1.10;;;;;;;;;;5130123;27;20055;-73
2022/08/19 12:46:06;;;;;;;5.13;1.20;;;;;;;;;;5130662;27;20047;-74
2022/08/19 12:48:42;;;;;;;10.60;2.80;;;;;;;;;;5129723;27;20046;-76
2022/08/19 12:51:19;;;;;;;2.53;1.38;;;;;;;;;;5130233;27;20055;-74
2022/08/19 12:53:49;;;;;;;3.97;1.17;;;;;;;;;;5129996;27;20397;-75
2022/08/19 12:56:19;;;;;;;4.65;2.85;;;;;;;;;;5129561;27;20047;-74
2022/08/19 12:58:51;;;;;;;0.95;0.70;;;;;;;;;;5129482;27;20047;-73
2022/08/19 13:01:21;;;;;;;3.03;1.17;;;;;;;;;;5129814;27;20055;-74
2022/08/19 13:03:54;;;;;;;3.58;1.40;;;;;;;;;;5130075;27;20113;-74
2022/08/19 13:06:24;;;;;;;3.25;1.08;;;;;;;;;;5128876;27;20043;-72
2022/08/19 13:08:55;;;;;;;5.63;1.30;;;;;;;;;;5131121;27;20047;-73
2022/08/19 13:11:32;;;;;;;3.10;0.90;;;;;;;;;;5133134;27;20047;-73
2022/08/19 13:14:04;;;;;;;6.03;1.23;;;;;;;;;;5112763;27;20055;-72
2022/08/19 13:16:36;;;;;;;2.92;1.00;;;;;;;;;;5129104;27;20058;-72
2022/08/19 13:19:07;;;;;;;5.72;1.40;;;;;;;;;;5129045;27;20057;-72
2022/08/19 13:21:37;;;;;;;5.32;1.30;;;;;;;;;;5129278;27;20050;-74
2022/08/19 13:24:07;;;;;;;3.92;0.80;;;;;;;;;;5129570;27;20074;-74
2022/08/19 13:26:37;;;;;;;5.32;1.13;;;;;;;;;;5129029;27;20050;-73
2022/08/19 13:34:49;;;;;;;1.88;0.65;;;;;;;;;;5128599;27;20294;-73
2022/08/19 13:37:40;;;;;;;1.30;0.63;;;;;;;;;;5129844;27;20038;-73
2022/08/19 13:40:18;;;;;;;4.05;0.70;;;;;;;;;;5129164;27;20042;-73
2022/08/19 13:42:52;;;;;;;5.85;1.00;;;;;;;;;;5129077;27;20051;-72
2022/08/19 13:45:24;;;;;;;2.92;0.70;;;;;;;;;;5128773;27;20046;-74
2022/08/19 13:47:56;;;;;;;2.97;0.80;;;;;;;;;;5128898;27;20051;-74
2022/08/19 13:50:31;;;;;;;2.85;0.75;;;;;;;;;;5128618;27;20058;-74
2022/08/19 13:53:02;;;;;;;1.48;0.52;;;;;;;;;;5110027;27;20409;-74
2022/08/19 13:55:32;;;;;;;2.47;1.10;;;;;;;;;;5128078;27;20051;-74
2022/08/19 13:58:03;;;;;;;5.82;1.50;;;;;;;;;;5128486;27;20043;-75
2022/08/19 14:00:37;;;;;;;3.03;0.55;;;;;;;;;;5109611;27;20521;-73
2022/08/19 14:03:07;;;;;;;4.05;1.00;;;;;;;;;;5128337;27;20074;-74
2022/08/19 14:05:37;;;;;;;7.20;1.83;;;;;;;;;;5128081;27;20047;-74
2022/08/19 14:08:07;;;;;;;2.40;0.65;;;;;;;;;;5127921;27;20501;-73
2022/08/19 14:10:37;;;;;;;3.25;0.70;;;;;;;;;;5128320;27;20043;-74
2022/08/19 14:13:06;;;;;;;4.53;0.70;;;;;;;;;;5128086;27;20047;-73
2022/08/19 14:15:37;;;;;;;2.83;1.05;;;;;;;;;;5128094;27;20047;-74
2022/08/19 14:18:07;;;;;;;1.10;0.63;;;;;;;;;;5110557;27;20043;-75
2022/08/19 14:20:38;;;;;;;4.10;0.80;;;;;;;;;;5128245;27;20035;-74
2022/08/19 14:23:09;;;;;;;2.83;0.68;;;;;;;;;;5128157;27;20509;-74
2022/08/19 14:25:39;;;;;;;7.35;1.30;;;;;;;;;;5127526;27;20050;-74
2022/08/19 14:28:09;;;;;;;4.63;0.82;;;;;;;;;;5110030;27;20069;-73
2022/08/19 14:30:39;;;;;;;3.35;1.00;;;;;;;;;;5128194;27;20254;-73
2022/08/19 14:33:09;;;;;;;2.00;0.60;;;;;;;;;;5127829;27;20397;-73
2022/08/19 14:35:38;;;;;;;3.10;0.70;;;;;;;;;;5127918;27;20432;-73
2022/08/19 14:38:16;;;;;;;3.97;0.70;;;;;;;;;;5127797;27;20043;-73
2022/08/19 14:40:57;;;;;;;3.08;0.82;;;;;;;;;;5127448;27;20043;-76
2022/08/19 14:43:27;;;;;;;3.88;0.75;;;;;;;;;;5128484;27;20050;-75
2022/08/19 14:45:57;;;;;;;1.98;0.73;;;;;;;;;;5109626;27;20521;-74
2022/08/19 14:48:27;;;;;;;2.05;0.70;;;;;;;;;;5108022;27;20070;-73
2022/08/19 14:50:57;;;;;;;1.55;0.60;;;;;;;;;;5107843;27;20058;-73
2022/08/19 14:53:26;;;;;;;2.30;0.70;;;;;;;;;;5127123;27;20683;-75
2022/08/19 14:55:56;;;;;;;1.92;0.88;;;;;;;;;;5126151;27;20618;-79
2022/08/19 14:58:27;;;;;;;8.18;3.28;;;;;;;;;;5127476;27;20050;-75
2022/08/19 15:01:01;;;;;;;2.35;0.70;;;;;;;;;;5127203;27;20050;-73
2022/08/19 15:03:31;;;;;;;1.98;0.60;;;;;;;;;;5127349;27;20053;-74
2022/08/19 15:06:03;;;;;;;2.55;0.73;;;;;;;;;;5127165;28;20051;-73
2022/08/19 15:08:36;;;;;;;1.55;0.82;;;;;;;;;;5127020;28;20397;-73
2022/08/19 15:11:10;;;;;;;2.72;0.55;;;;;;;;;;5127654;28;20490;-74
2022/08/19 15:13:41;;;;;;;1.98;0.55;;;;;;;;;;5127090;28;20043;-73
2022/08/19 15:16:12;;;;;;;2.20;0.50;;;;;;;;;;5127489;28;20051;-73
2022/08/19 15:18:49;;;;;;;1.55;0.63;;;;;;;;;;5127471;28;20782;-74
2022/08/19 15:21:22;;;;;;;2.90;0.55;;;;;;;;;;5127279;28;20493;-73
2022/08/19 15:23:57;;;;;;;2.03;0.40;;;;;;;;;;5127314;28;20039;-73
2022/08/19 15:26:31;;;;;;;3.25;0.60;;;;;;;;;;5127439;28;20050;-73
2022/08/19 15:29:02;;;;;;;3.40;0.60;;;;;;;;;;5127199;28;20040;-73
2022/08/19 15:31:35;;;;;;;1.67;0.57;;;;;;;;;;5126911;28;20050;-73
2022/08/19 15:34:07;;;;;;;4.35;0.60;;;;;;;;;;5125728;28;20054;-74
2022/08/19 15:36:37;;;;;;;4.78;0.73;;;;;;;;;;5127546;28;20050;-72
2022/08/19 15:39:08;;;;;;;2.65;0.57;;;;;;;;;;5127538;28;20484;-73
2022/08/19 15:41:39;;;;;;;1.73;0.50;;;;;;;;;;5126969;28;20420;-73
2022/08/19 15:44:14;;;;;;;3.78;0.88;;;;;;;;;;5126374;28;20043;-73
2022/08/19 15:46:46;;;;;;;1.70;0.50;;;;;;;;;;5126915;28;20513;-73